sensor_id;sensor_type;location;lat;lon;timestamp;pressure;altitude;pressure_sealevel;temperature;humidity
69624;BME280;56843;52.020;5.670;2023-05-25T00:00:12;102433.16;;;12.97;61.96
69624;BME280;56843;52.020;5.670;2023-05-25T00:01:43;102426.78;;;12.93;61.78
69624;BME280;56843;52.020;5.670;2023-05-25T00:03:14;102435.94;;;12.92;62.09
69624;BME280;56843;52.020;5.670;2023-05-25T00:04:45;102428.22;;;12.90;62.11
69624;BME280;56843;52.020;5.670;2023-05-25T00:06:18;102432.28;;;12.88;62.18
69624;BME280;56843;52.020;5.670;2023-05-25T00:07:49;102428.78;;;12.87;62.20
69624;BME280;56843;52.020;5.670;2023-05-25T00:09:19;102424.81;;;12.85;62.25
69624;BME280;56843;52.020;5.670;2023-05-25T00:10:50;102424.00;;;12.84;62.09
69624;BME280;56843;52.020;5.670;2023-05-25T00:12:21;102426.19;;;12.82;62.22
69624;BME280;56843;52.020;5.670;2023-05-25T00:13:52;102426.19;;;12.82;62.12
69624;BME280;56843;52.020;5.670;2023-05-25T00:15:22;102424.91;;;12.80;62.38
69624;BME280;56843;52.020;5.670;2023-05-25T00:16:53;102425.97;;;12.79;62.30
69624;BME280;56843;52.020;5.670;2023-05-25T00:18:23;102427.38;;;12.76;62.53
69624;BME280;56843;52.020;5.670;2023-05-25T00:19:59;102426.56;;;12.76;62.44
69624;BME280;56843;52.020;5.670;2023-05-25T00:21:40;102419.41;;;12.71;62.45
69624;BME280;56843;52.020;5.670;2023-05-25T00:23:11;102421.59;;;12.69;62.78
69624;BME280;56843;52.020;5.670;2023-05-25T00:24:41;102428.34;;;12.67;62.89
69624;BME280;56843;52.020;5.670;2023-05-25T00:26:11;102434.81;;;12.66;62.84
69624;BME280;56843;52.020;5.670;2023-05-25T00:27:42;102435.88;;;12.65;62.70
69624;BME280;56843;52.020;5.670;2023-05-25T00:29:12;102432.72;;;12.63;62.88
69624;BME280;56843;52.020;5.670;2023-05-25T00:30:44;102433.03;;;12.61;63.08
69624;BME280;56843;52.020;5.670;2023-05-25T00:32:14;102434.91;;;12.61;63.03
69624;BME280;56843;52.020;5.670;2023-05-25T00:33:45;102435.97;;;12.60;62.73
69624;BME280;56843;52.020;5.670;2023-05-25T00:35:15;102433.59;;;12.58;62.79
69624;BME280;56843;52.020;5.670;2023-05-25T00:36:46;102431.50;;;12.55;63.02
69624;BME280;56843;52.020;5.670;2023-05-25T00:38:19;102428.81;;;12.55;62.89
69624;BME280;56843;52.020;5.670;2023-05-25T00:39:50;102430.22;;;12.52;63.26
69624;BME280;56843;52.020;5.670;2023-05-25T00:41:21;102430.50;;;12.51;63.14
69624;BME280;56843;52.020;5.670;2023-05-25T00:42:52;102432.69;;;12.49;63.08
69624;BME280;56843;52.020;5.670;2023-05-25T00:44:22;102428.72;;;12.46;63.17
69624;BME280;56843;52.020;5.670;2023-05-25T00:45:53;102431.41;;;12.46;63.00
69624;BME280;56843;52.020;5.670;2023-05-25T00:47:23;102429.81;;;12.45;63.06
69624;BME280;56843;52.020;5.670;2023-05-25T00:48:56;102437.84;;;12.45;63.33
69624;BME280;56843;52.020;5.670;2023-05-25T00:50:39;102430.09;;;12.44;63.27
69624;BME280;56843;52.020;5.670;2023-05-25T00:52:11;102428.28;;;12.39;63.47
69624;BME280;56843;52.020;5.670;2023-05-25T00:53:42;102426.53;;;12.35;63.41
69624;BME280;56843;52.020;5.670;2023-05-25T00:55:15;102432.88;;;12.39;63.52
69624;BME280;56843;52.020;5.670;2023-05-25T00:57:07;102425.91;;;12.38;63.37
69624;BME280;56843;52.020;5.670;2023-05-25T00:58:39;102431.09;;;12.34;63.15
69624;BME280;56843;52.020;5.670;2023-05-25T01:02:17;102422.31;;;12.29;63.56
69624;BME280;56843;52.020;5.670;2023-05-25T01:03:50;102424.72;;;12.30;63.39
69624;BME280;56843;52.020;5.670;2023-05-25T01:05:24;102425.81;;;12.29;63.70
69624;BME280;56843;52.020;5.670;2023-05-25T01:06:58;102428.00;;;12.27;63.43
69624;BME280;56843;52.020;5.670;2023-05-25T01:08:32;102429.38;;;12.25;63.26
69624;BME280;56843;52.020;5.670;2023-05-25T01:10:04;102430.47;;;12.24;63.19
69624;BME280;56843;52.020;5.670;2023-05-25T01:11:38;102434.72;;;12.25;63.35
69624;BME280;56843;52.020;5.670;2023-05-25T01:13:10;102441.19;;;12.24;63.23
69624;BME280;56843;52.020;5.670;2023-05-25T01:14:42;102434.72;;;12.25;63.26
69624;BME280;56843;52.020;5.670;2023-05-25T01:16:15;102431.75;;;12.26;63.35
69624;BME280;56843;52.020;5.670;2023-05-25T01:17:47;102432.03;;;12.25;63.25
69624;BME280;56843;52.020;5.670;2023-05-25T01:19:23;102442.75;;;12.25;63.03
69624;BME280;56843;52.020;5.670;2023-05-25T01:20:55;102435.03;;;12.23;63.72
69624;BME280;56843;52.020;5.670;2023-05-25T01:24:28;102439.88;;;12.21;63.28
69624;BME280;56843;52.020;5.670;2023-05-25T01:26:04;102441.25;;;12.19;63.52
69624;BME280;56843;52.020;5.670;2023-05-25T01:27:55;102447.41;;;12.19;63.50
69624;BME280;56843;52.020;5.670;2023-05-25T01:29:28;102451.47;;;12.17;63.48
69624;BME280;56843;52.020;5.670;2023-05-25T01:31:01;102453.34;;;12.16;63.17
69624;BME280;56843;52.020;5.670;2023-05-25T01:32:32;102455.22;;;12.16;63.44
69624;BME280;56843;52.020;5.670;2023-05-25T01:34:04;102456.84;;;12.17;63.13
69624;BME280;56843;52.020;5.670;2023-05-25T01:35:35;102457.09;;;12.15;63.20
69624;BME280;56843;52.020;5.670;2023-05-25T01:37:06;102458.72;;;12.16;63.27
69624;BME280;56843;52.020;5.670;2023-05-25T01:38:39;102445.13;;;12.13;63.42
69624;BME280;56843;52.020;5.670;2023-05-25T01:40:14;102461.38;;;12.16;63.49
69624;BME280;56843;52.020;5.670;2023-05-25T01:41:45;102462.47;;;12.15;63.16
69624;BME280;56843;52.020;5.670;2023-05-25T01:43:16;102457.41;;;12.14;63.21
69624;BME280;56843;52.020;5.670;2023-05-25T01:44:47;102461.97;;;12.13;63.49
69624;BME280;56843;52.020;5.670;2023-05-25T01:46:31;102466.25;;;12.14;63.57
69624;BME280;56843;52.020;5.670;2023-05-25T01:53:35;102461.56;;;12.06;63.56
69624;BME280;56843;52.020;5.670;2023-05-25T01:55:14;102456.22;;;12.06;63.21
69624;BME280;56843;52.020;5.670;2023-05-25T01:56:48;102461.03;;;12.04;63.33
69624;BME280;56843;52.020;5.670;2023-05-25T01:58:23;102466.38;;;12.04;63.66
69624;BME280;56843;52.020;5.670;2023-05-25T01:59:55;102464.81;;;12.03;63.23
69624;BME280;56843;52.020;5.670;2023-05-25T02:01:32;102462.44;;;12.02;63.54
69624;BME280;56843;52.020;5.670;2023-05-25T02:03:03;102467.00;;;12.01;63.39
69624;BME280;56843;52.020;5.670;2023-05-25T02:04:34;102464.31;;;12.01;63.36
69624;BME280;56843;52.020;5.670;2023-05-25T02:06:06;102469.94;;;12.00;63.37
69624;BME280;56843;52.020;5.670;2023-05-25T02:07:38;102470.25;;;11.98;63.78
69624;BME280;56843;52.020;5.670;2023-05-25T02:09:09;102467.84;;;11.97;63.40
69624;BME280;56843;52.020;5.670;2023-05-25T02:10:39;102460.91;;;11.96;63.86
69624;BME280;56843;52.020;5.670;2023-05-25T02:12:10;102469.22;;;11.94;63.81
69624;BME280;56843;52.020;5.670;2023-05-25T02:13:40;102469.81;;;11.91;63.67
69624;BME280;56843;52.020;5.670;2023-05-25T02:15:11;102467.13;;;11.91;63.93
69624;BME280;56843;52.020;5.670;2023-05-25T02:16:41;102471.19;;;11.89;63.59
69624;BME280;56843;52.020;5.670;2023-05-25T02:18:16;102468.78;;;11.87;63.75
69624;BME280;56843;52.020;5.670;2023-05-25T02:19:47;102464.53;;;11.86;63.90
69624;BME280;56843;52.020;5.670;2023-05-25T02:21:22;102472.56;;;11.86;63.98
69624;BME280;56843;52.020;5.670;2023-05-25T02:22:55;102470.97;;;11.85;63.77
69624;BME280;56843;52.020;5.670;2023-05-25T02:24:26;102469.41;;;11.84;63.63
69624;BME280;56843;52.020;5.670;2023-05-25T02:25:56;102468.88;;;11.82;63.77
69624;BME280;56843;52.020;5.670;2023-05-25T02:27:28;102467.00;;;11.82;63.73
69624;BME280;56843;52.020;5.670;2023-05-25T02:28:58;102466.47;;;11.80;63.79
69624;BME280;56843;52.020;5.670;2023-05-25T02:30:31;102471.34;;;11.78;64.00
69624;BME280;56843;52.020;5.670;2023-05-25T02:32:02;102461.69;;;11.77;64.03
69624;BME280;56843;52.020;5.670;2023-05-25T02:33:32;102464.69;;;11.76;64.05
69624;BME280;56843;52.020;5.670;2023-05-25T02:35:03;102458.81;;;11.74;64.17
69624;BME280;56843;52.020;5.670;2023-05-25T02:36:34;102468.72;;;11.73;64.24
69624;BME280;56843;52.020;5.670;2023-05-25T02:38:07;102464.75;;;11.71;64.07
69624;BME280;56843;52.020;5.670;2023-05-25T02:39:38;102465.53;;;11.71;64.06
69624;BME280;56843;52.020;5.670;2023-05-25T02:41:10;102466.91;;;11.69;63.98
69624;BME280;56843;52.020;5.670;2023-05-25T02:42:40;102465.59;;;11.66;64.27
69624;BME280;56843;52.020;5.670;2023-05-25T02:44:11;102469.38;;;11.65;64.15
69624;BME280;56843;52.020;5.670;2023-05-25T02:45:41;102469.69;;;11.64;64.50
69624;BME280;56843;52.020;5.670;2023-05-25T02:47:13;102466.19;;;11.63;64.34
69624;BME280;56843;52.020;5.670;2023-05-25T02:48:44;102470.75;;;11.63;64.35
69624;BME280;56843;52.020;5.670;2023-05-25T02:50:15;102474.53;;;11.62;63.98
69624;BME280;56843;52.020;5.670;2023-05-25T02:51:49;102472.41;;;11.59;64.49
69624;BME280;56843;52.020;5.670;2023-05-25T02:53:20;102467.38;;;11.57;64.35
69624;BME280;56843;52.020;5.670;2023-05-25T02:54:51;102468.44;;;11.56;64.21
69624;BME280;56843;52.020;5.670;2023-05-25T02:56:27;102483.94;;;11.54;64.27
69624;BME280;56843;52.020;5.670;2023-05-25T02:57:59;102477.00;;;11.53;64.30
69624;BME280;56843;52.020;5.670;2023-05-25T02:59:52;102474.09;;;11.50;64.71
69624;BME280;56843;52.020;5.670;2023-05-25T03:01:23;102476.50;;;11.51;64.41
69624;BME280;56843;52.020;5.670;2023-05-25T03:02:57;102477.59;;;11.50;64.24
69624;BME280;56843;52.020;5.670;2023-05-25T03:04:28;102480.25;;;11.50;64.29
69624;BME280;56843;52.020;5.670;2023-05-25T03:06:00;102481.63;;;11.48;64.62
69624;BME280;56843;52.020;5.670;2023-05-25T03:07:33;102475.47;;;11.47;64.28
69624;BME280;56843;52.020;5.670;2023-05-25T03:09:03;102485.38;;;11.47;64.63
69624;BME280;56843;52.020;5.670;2023-05-25T03:10:35;102480.63;;;11.44;64.57
69624;BME280;56843;52.020;5.670;2023-05-25T03:12:06;102481.69;;;11.43;64.24
69624;BME280;56843;52.020;5.670;2023-05-25T03:13:36;102482.28;;;11.40;64.62
69624;BME280;56843;52.020;5.670;2023-05-25T03:15:07;102485.50;;;11.37;64.17
69624;BME280;56843;52.020;5.670;2023-05-25T03:16:38;102481.88;;;11.28;64.56
69624;BME280;56843;52.020;5.670;2023-05-25T03:18:09;102485.19;;;11.20;64.65
69624;BME280;56843;52.020;5.670;2023-05-25T03:19:41;102481.06;;;11.08;64.64
69624;BME280;56843;52.020;5.670;2023-05-25T03:21:13;102478.97;;;11.00;64.66
69624;BME280;56843;52.020;5.670;2023-05-25T03:22:44;102477.50;;;10.89;64.91
69624;BME280;56843;52.020;5.670;2023-05-25T03:24:15;102485.59;;;10.84;64.72
69624;BME280;56843;52.020;5.670;2023-05-25T03:25:48;102494.19;;;10.76;64.67
69624;BME280;56843;52.020;5.670;2023-05-25T03:27:20;102485.72;;;10.69;65.09
69624;BME280;56843;52.020;5.670;2023-05-25T03:28:51;102491.38;;;10.63;65.11
69624;BME280;56843;52.020;5.670;2023-05-25T03:30:22;102484.00;;;10.55;64.82
69624;BME280;56843;52.020;5.670;2023-05-25T03:31:53;102490.19;;;10.50;64.62
69624;BME280;56843;52.020;5.670;2023-05-25T03:33:26;102483.00;;;10.46;65.00
69624;BME280;56843;52.020;5.670;2023-05-25T03:34:57;102487.03;;;10.43;64.71
69624;BME280;56843;52.020;5.670;2023-05-25T03:36:29;102492.44;;;10.38;64.53
69624;BME280;56843;52.020;5.670;2023-05-25T03:38:03;102489.22;;;10.36;64.68
69624;BME280;56843;52.020;5.670;2023-05-25T03:39:33;102488.69;;;10.34;64.88
69624;BME280;56843;52.020;5.670;2023-05-25T03:41:04;102490.84;;;10.32;64.53
69624;BME280;56843;52.020;5.670;2023-05-25T03:42:35;102497.56;;;10.29;64.77
69624;BME280;56843;52.020;5.670;2023-05-25T03:44:05;102497.84;;;10.28;64.43
69624;BME280;56843;52.020;5.670;2023-05-25T03:45:37;102499.47;;;10.24;65.02
69624;BME280;56843;52.020;5.670;2023-05-25T03:47:07;102500.03;;;10.21;64.79
69624;BME280;56843;52.020;5.670;2023-05-25T03:48:38;102491.50;;;10.19;64.89
69624;BME280;56843;52.020;5.670;2023-05-25T03:50:09;102488.31;;;10.17;64.67
69624;BME280;56843;52.020;5.670;2023-05-25T03:51:40;102504.59;;;10.15;64.75
69624;BME280;56843;52.020;5.670;2023-05-25T03:53:10;102491.78;;;10.12;64.80
69624;BME280;56843;52.020;5.670;2023-05-25T03:54:42;102500.06;;;10.11;64.68
69624;BME280;56843;52.020;5.670;2023-05-25T03:56:13;102501.66;;;10.12;64.57
69624;BME280;56843;52.020;5.670;2023-05-25T03:57:43;102499.50;;;10.14;64.67
69624;BME280;56843;52.020;5.670;2023-05-25T03:59:14;102510.19;;;10.14;64.57
69624;BME280;56843;52.020;5.670;2023-05-25T04:00:44;102504.06;;;10.13;64.68
69624;BME280;56843;52.020;5.670;2023-05-25T04:02:18;102515.53;;;10.14;64.60
69624;BME280;56843;52.020;5.670;2023-05-25T04:03:48;102511.28;;;10.18;64.63
69624;BME280;56843;52.020;5.670;2023-05-25T04:05:20;102504.81;;;10.24;64.59
69624;BME280;56843;52.020;5.670;2023-05-25T04:06:51;102511.19;;;10.28;64.63
69624;BME280;56843;52.020;5.670;2023-05-25T04:08:21;102511.66;;;10.35;64.49
69624;BME280;56843;52.020;5.670;2023-05-25T04:09:53;102506.31;;;10.40;64.56
69624;BME280;56843;52.020;5.670;2023-05-25T04:11:23;102509.19;;;10.44;64.31
69624;BME280;56843;52.020;5.670;2023-05-25T04:12:54;102511.84;;;10.49;65.16
69624;BME280;56843;52.020;5.670;2023-05-25T04:14:29;102508.31;;;10.53;64.76
69624;BME280;56843;52.020;5.670;2023-05-25T04:15:59;102514.69;;;10.57;64.51
69624;BME280;56843;52.020;5.670;2023-05-25T04:17:34;102524.03;;;10.60;64.42
69624;BME280;56843;52.020;5.670;2023-05-25T04:19:06;102514.38;;;10.64;64.40
69624;BME280;56843;52.020;5.670;2023-05-25T04:20:36;102522.59;;;10.67;64.41
69624;BME280;56843;52.020;5.670;2023-05-25T04:22:08;102521.25;;;10.70;64.38
69624;BME280;56843;52.020;5.670;2023-05-25T04:23:39;102518.84;;;10.73;64.32
69624;BME280;56843;52.020;5.670;2023-05-25T04:25:11;102518.84;;;10.73;64.30
69624;BME280;56843;52.020;5.670;2023-05-25T04:26:42;102511.84;;;10.77;64.46
69624;BME280;56843;52.020;5.670;2023-05-25T04:28:16;102514.22;;;10.79;64.29
69624;BME280;56843;52.020;5.670;2023-05-25T04:29:56;102519.56;;;10.79;64.55
69624;BME280;56843;52.020;5.670;2023-05-25T04:31:52;102524.09;;;10.78;64.55
69624;BME280;56843;52.020;5.670;2023-05-25T04:33:56;102520.66;;;10.78;64.67
69624;BME280;56843;52.020;5.670;2023-05-25T04:35:32;102527.28;;;10.80;64.39
69624;BME280;56843;52.020;5.670;2023-05-25T04:37:03;102524.06;;;10.83;64.30
69624;BME280;56843;52.020;5.670;2023-05-25T04:38:35;102519.53;;;10.84;64.64
69624;BME280;56843;52.020;5.670;2023-05-25T04:40:07;102522.72;;;10.86;64.50
69624;BME280;56843;52.020;5.670;2023-05-25T04:41:45;102514.41;;;10.87;64.73
69624;BME280;56843;52.020;5.670;2023-05-25T04:43:16;102521.06;;;10.90;64.80
69624;BME280;56843;52.020;5.670;2023-05-25T04:44:48;102525.06;;;10.92;64.33
69624;BME280;56843;52.020;5.670;2023-05-25T04:46:18;102517.53;;;10.94;64.56
69624;BME280;56843;52.020;5.670;2023-05-25T04:47:50;102519.66;;;10.97;64.82
69624;BME280;56843;52.020;5.670;2023-05-25T04:49:21;102522.84;;;10.99;64.43
69624;BME280;56843;52.020;5.670;2023-05-25T04:50:51;102531.91;;;11.03;64.34
69624;BME280;56843;52.020;5.670;2023-05-25T04:52:25;102534.00;;;11.06;64.23
69624;BME280;56843;52.020;5.670;2023-05-25T04:53:55;102528.38;;;11.08;64.44
69624;BME280;56843;52.020;5.670;2023-05-25T04:55:26;102541.97;;;11.12;64.26
69624;BME280;56843;52.020;5.670;2023-05-25T04:56:57;102539.03;;;11.13;64.27
69624;BME280;56843;52.020;5.670;2023-05-25T04:58:28;102547.56;;;11.15;64.38
69624;BME280;56843;52.020;5.670;2023-05-25T04:59:59;102546.97;;;11.18;64.69
69624;BME280;56843;52.020;5.670;2023-05-25T05:01:29;102554.44;;;11.21;64.56
69624;BME280;56843;52.020;5.670;2023-05-25T05:03:04;102554.66;;;11.25;64.26
69624;BME280;56843;52.020;5.670;2023-05-25T05:04:36;102563.72;;;11.29;64.34
69624;BME280;56843;52.020;5.670;2023-05-25T05:06:06;102559.41;;;11.33;64.27
69624;BME280;56843;52.020;5.670;2023-05-25T05:07:37;102553.47;;;11.36;64.33
69624;BME280;56843;52.020;5.670;2023-05-25T05:09:08;102565.22;;;11.40;64.13
69624;BME280;56843;52.020;5.670;2023-05-25T05:10:38;102569.66;;;11.44;64.20
69624;BME280;56843;52.020;5.670;2023-05-25T05:12:09;102569.91;;;11.48;64.18
69624;BME280;56843;52.020;5.670;2023-05-25T05:13:43;102565.59;;;11.52;64.22
69624;BME280;56843;52.020;5.670;2023-05-25T05:15:14;102565.84;;;11.55;64.11
69624;BME280;56843;52.020;5.670;2023-05-25T05:16:46;102561.78;;;11.58;64.18
69624;BME280;56843;52.020;5.670;2023-05-25T05:18:17;102563.59;;;11.62;64.32
69624;BME280;56843;52.020;5.670;2023-05-25T05:19:48;102561.69;;;11.68;64.22
69624;BME280;56843;52.020;5.670;2023-05-25T05:21:18;102572.91;;;11.70;63.92
69624;BME280;56843;52.020;5.670;2023-05-25T05:22:49;102560.38;;;11.65;64.05
69624;BME280;56843;52.020;5.670;2023-05-25T05:24:20;102571.88;;;11.66;64.13
69624;BME280;56843;52.020;5.670;2023-05-25T05:25:51;102574.06;;;11.64;64.33
69624;BME280;56843;52.020;5.670;2023-05-25T05:27:21;102565.78;;;11.60;64.16
69624;BME280;56843;52.020;5.670;2023-05-25T05:28:57;102571.72;;;11.57;64.18
69624;BME280;56843;52.020;5.670;2023-05-25T05:30:28;102571.44;;;11.54;64.53
69624;BME280;56843;52.020;5.670;2023-05-25T05:31:59;102564.50;;;11.53;64.50
69624;BME280;56843;52.020;5.670;2023-05-25T05:33:31;102563.72;;;11.52;64.68
69624;BME280;56843;52.020;5.670;2023-05-25T05:35:02;102567.19;;;11.53;64.88
69624;BME280;56843;52.020;5.670;2023-05-25T05:36:43;102576.13;;;11.67;64.73
69624;BME280;56843;52.020;5.670;2023-05-25T05:38:15;102568.94;;;11.86;64.25
69624;BME280;56843;52.020;5.670;2023-05-25T05:39:46;102573.22;;;12.06;63.99
69624;BME280;56843;52.020;5.670;2023-05-25T05:41:17;102573.72;;;12.26;63.61
69624;BME280;56843;52.020;5.670;2023-05-25T05:42:52;102571.84;;;12.45;63.45
69624;BME280;56843;52.020;5.670;2023-05-25T05:44:23;102566.72;;;12.63;62.78
69624;BME280;56843;52.020;5.670;2023-05-25T05:45:53;102579.03;;;12.82;62.34
69624;BME280;56843;52.020;5.670;2023-05-25T05:47:24;102578.97;;;13.01;61.92
69624;BME280;56843;52.020;5.670;2023-05-25T05:48:55;102579.19;;;13.18;61.97
69624;BME280;56843;52.020;5.670;2023-05-25T05:50:26;102580.78;;;13.33;61.53
69624;BME280;56843;52.020;5.670;2023-05-25T05:51:57;102587.78;;;13.47;61.30
69624;BME280;56843;52.020;5.670;2023-05-25T05:53:28;102598.19;;;13.62;61.04
69624;BME280;56843;52.020;5.670;2023-05-25T05:54:59;102594.88;;;13.79;60.69
69624;BME280;56843;52.020;5.670;2023-05-25T05:56:30;102595.69;;;13.93;60.28
69624;BME280;56843;52.020;5.670;2023-05-25T05:58:00;102602.34;;;14.09;59.83
69624;BME280;56843;52.020;5.670;2023-05-25T05:59:31;102599.00;;;14.26;59.82
69624;BME280;56843;52.020;5.670;2023-05-25T06:01:02;102606.44;;;14.42;59.40
69624;BME280;56843;52.020;5.670;2023-05-25T06:02:32;102606.88;;;14.58;58.80
69624;BME280;56843;52.020;5.670;2023-05-25T06:04:04;102600.31;;;14.72;58.61
69624;BME280;56843;52.020;5.670;2023-05-25T06:05:35;102605.81;;;14.90;58.09
69624;BME280;56843;52.020;5.670;2023-05-25T06:07:05;102611.94;;;15.04;57.86
69624;BME280;56843;52.020;5.670;2023-05-25T06:08:36;102600.78;;;15.19;57.70
69624;BME280;56843;52.020;5.670;2023-05-25T06:10:07;102601.78;;;15.31;57.46
69624;BME280;56843;52.020;5.670;2023-05-25T06:11:38;102600.56;;;15.46;57.40
69624;BME280;56843;52.020;5.670;2023-05-25T06:13:10;102605.06;;;15.59;56.98
69624;BME280;56843;52.020;5.670;2023-05-25T06:14:41;102603.66;;;15.70;56.93
69624;BME280;56843;52.020;5.670;2023-05-25T06:16:12;102605.44;;;15.83;56.58
69624;BME280;56843;52.020;5.670;2023-05-25T06:17:42;102598.31;;;15.96;56.13
69624;BME280;56843;52.020;5.670;2023-05-25T06:19:14;102606.59;;;16.08;56.02
69624;BME280;56843;52.020;5.670;2023-05-25T06:20:45;102609.47;;;16.20;55.83
69624;BME280;56843;52.020;5.670;2023-05-25T06:22:16;102606.13;;;16.32;55.72
69624;BME280;56843;52.020;5.670;2023-05-25T06:23:46;102613.13;;;16.41;55.45
69624;BME280;56843;52.020;5.670;2023-05-25T06:25:17;102607.88;;;16.53;54.86
69624;BME280;56843;52.020;5.670;2023-05-25T06:26:48;102616.13;;;16.65;55.03
69624;BME280;56843;52.020;5.670;2023-05-25T06:28:18;102611.50;;;16.74;54.63
69624;BME280;56843;52.020;5.670;2023-05-25T06:29:49;102613.84;;;16.84;54.54
69624;BME280;56843;52.020;5.670;2023-05-25T06:31:19;102617.84;;;16.96;54.30
69624;BME280;56843;52.020;5.670;2023-05-25T06:32:50;102612.75;;;17.03;54.16
69624;BME280;56843;52.020;5.670;2023-05-25T06:34:21;102613.50;;;17.12;54.15
69624;BME280;56843;52.020;5.670;2023-05-25T06:35:51;102617.31;;;17.19;53.92
69624;BME280;56843;52.020;5.670;2023-05-25T06:37:26;102619.16;;;17.27;53.60
69624;BME280;56843;52.020;5.670;2023-05-25T06:38:57;102615.63;;;17.35;53.45
69624;BME280;56843;52.020;5.670;2023-05-25T06:40:27;102612.13;;;17.43;53.11
69624;BME280;56843;52.020;5.670;2023-05-25T06:41:59;102623.69;;;17.52;53.23
69624;BME280;56843;52.020;5.670;2023-05-25T06:43:34;102632.84;;;17.60;52.87
69624;BME280;56843;52.020;5.670;2023-05-25T06:45:17;102626.94;;;17.67;52.64
69624;BME280;56843;52.020;5.670;2023-05-25T06:46:47;102624.50;;;17.74;52.57
69624;BME280;56843;52.020;5.670;2023-05-25T06:48:19;102624.63;;;17.77;52.48
69624;BME280;56843;52.020;5.670;2023-05-25T06:49:50;102623.34;;;17.83;52.17
69624;BME280;56843;52.020;5.670;2023-05-25T06:51:20;102637.44;;;17.97;52.16
69624;BME280;56843;52.020;5.670;2023-05-25T06:52:51;102638.91;;;18.15;51.89
69624;BME280;56843;52.020;5.670;2023-05-25T06:54:21;102634.22;;;18.24;51.58
69624;BME280;56843;52.020;5.670;2023-05-25T06:55:52;102639.56;;;18.33;51.48
69624;BME280;56843;52.020;5.670;2023-05-25T06:57:23;102639.19;;;18.43;51.30
69624;BME280;56843;52.020;5.670;2023-05-25T06:58:53;102643.38;;;18.53;51.32
69624;BME280;56843;52.020;5.670;2023-05-25T07:00:24;102651.06;;;18.71;50.64
69624;BME280;56843;52.020;5.670;2023-05-25T07:01:54;102644.66;;;18.88;50.19
69624;BME280;56843;52.020;5.670;2023-05-25T07:03:25;102647.22;;;19.05;49.87
69624;BME280;56843;52.020;5.670;2023-05-25T07:04:56;102647.69;;;19.19;49.39
69624;BME280;56843;52.020;5.670;2023-05-25T07:06:26;102642.25;;;19.19;49.66
69624;BME280;56843;52.020;5.670;2023-05-25T07:07:57;102639.91;;;19.18;49.72
69624;BME280;56843;52.020;5.670;2023-05-25T07:09:28;102641.59;;;19.22;49.68
69624;BME280;56843;52.020;5.670;2023-05-25T07:11:04;102649.28;;;19.20;49.66
69624;BME280;56843;52.020;5.670;2023-05-25T07:12:35;102639.09;;;19.17;49.66
69624;BME280;56843;52.020;5.670;2023-05-25T07:14:05;102646.44;;;19.17;49.84
69624;BME280;56843;52.020;5.670;2023-05-25T07:15:36;102651.06;;;19.16;49.73
69624;BME280;56843;52.020;5.670;2023-05-25T07:17:06;102657.25;;;19.17;49.35
69624;BME280;56843;52.020;5.670;2023-05-25T07:18:40;102648.03;;;19.18;49.28
69624;BME280;56843;52.020;5.670;2023-05-25T07:20:11;102655.81;;;19.19;49.27
69624;BME280;56843;52.020;5.670;2023-05-25T07:21:42;102643.66;;;19.25;49.53
69624;BME280;56843;52.020;5.670;2023-05-25T07:23:13;102646.91;;;19.31;49.10
69624;BME280;56843;52.020;5.670;2023-05-25T07:24:46;102648.25;;;19.37;49.18
69624;BME280;56843;52.020;5.670;2023-05-25T07:26:17;102645.25;;;19.38;49.15
69624;BME280;56843;52.020;5.670;2023-05-25T07:27:50;102646.13;;;19.42;48.93
69624;BME280;56843;52.020;5.670;2023-05-25T07:29:24;102643.88;;;19.44;48.67
69624;BME280;56843;52.020;5.670;2023-05-25T07:30:54;102650.19;;;19.48;48.82
69624;BME280;56843;52.020;5.670;2023-05-25T07:32:25;102654.50;;;19.49;48.79
69624;BME280;56843;52.020;5.670;2023-05-25T07:33:55;102647.50;;;19.48;48.43
69624;BME280;56843;52.020;5.670;2023-05-25T07:35:26;102643.66;;;19.49;48.39
69624;BME280;56843;52.020;5.670;2023-05-25T07:36:56;102654.81;;;19.48;48.56
69624;BME280;56843;52.020;5.670;2023-05-25T07:38:27;102656.75;;;19.47;48.58
69624;BME280;56843;52.020;5.670;2023-05-25T07:39:57;102662.19;;;19.47;48.57
69624;BME280;56843;52.020;5.670;2023-05-25T07:41:28;102659.47;;;19.47;48.25
69624;BME280;56843;52.020;5.670;2023-05-25T07:42:58;102660.69;;;19.50;48.45
69624;BME280;56843;52.020;5.670;2023-05-25T07:44:29;102667.06;;;19.54;48.30
69624;BME280;56843;52.020;5.670;2023-05-25T07:46:00;102665.94;;;19.55;48.20
69624;BME280;56843;52.020;5.670;2023-05-25T07:47:31;102662.41;;;19.54;47.97
69624;BME280;56843;52.020;5.670;2023-05-25T07:49:02;102667.53;;;19.56;48.11
69624;BME280;56843;52.020;5.670;2023-05-25T07:50:34;102664.03;;;19.55;47.65
69624;BME280;56843;52.020;5.670;2023-05-25T07:52:04;102664.38;;;19.54;47.83
69624;BME280;56843;52.020;5.670;2023-05-25T07:53:35;102667.38;;;19.52;47.46
69624;BME280;56843;52.020;5.670;2023-05-25T07:55:06;102672.69;;;19.49;47.56
69624;BME280;56843;52.020;5.670;2023-05-25T07:56:37;102670.63;;;19.46;47.96
69624;BME280;56843;52.020;5.670;2023-05-25T07:58:08;102664.75;;;19.44;47.92
69624;BME280;56843;52.020;5.670;2023-05-25T07:59:38;102673.59;;;19.41;47.61
69624;BME280;56843;52.020;5.670;2023-05-25T08:01:09;102677.31;;;19.36;47.82
69624;BME280;56843;52.020;5.670;2023-05-25T08:02:39;102674.47;;;19.33;47.77
69624;BME280;56843;52.020;5.670;2023-05-25T08:04:10;102678.63;;;19.30;47.56
69624;BME280;56843;52.020;5.670;2023-05-25T08:05:41;102678.53;;;19.27;47.93
69624;BME280;56843;52.020;5.670;2023-05-25T08:07:13;102659.19;;;19.16;47.70
69624;BME280;56843;52.020;5.670;2023-05-25T08:08:44;102679.53;;;19.22;47.48
69624;BME280;56843;52.020;5.670;2023-05-25T08:10:14;102678.47;;;19.15;47.94